Grampian Pride — GDDK — position and weather

sailwx.info

Track history (hours):
 
Tides and Currents Weather Stations Pressure Air Temp Water Temp Dewpoint Dewpoint Depression Visibility Wind Speed Wind Dir Waves Ship Positions

Grampian Pride

Last reported at 2014-Dec-05 07:25 UTC. Time now 2014-Dec-19 06:32 UTC.
Position N 61°22' E 001°45'.
Warning: this ship's position is 13 days out of date.

Length 42 m; draft 4.8 m.

Type: SAR. MMSI: 232843000.

Date/timePositionNaut miles runAvg speedWind from/ knotsBaromVisibWave heightAir tempDewpointWater temp
2014-Dec-05 07:25N 61°22' E 001°45'1 1.3
2014-Dec-05 06:34N 61°23' E 001°44'0 0.2
2014-Dec-05 05:33N 61°23' E 001°43'1 1.2
2014-Dec-05 04:33N 61°24' E 001°44'1 1.0
2014-Dec-05 03:33N 61°25' E 001°44'2 1.6
2014-Dec-05 02:33N 61°23' E 001°43'1 1.1
2014-Dec-05 01:33N 61°22' E 001°43'1 1.3
2014-Dec-05 00:33N 61°24' E 001°43'2 1.8
2014-Dec-04 23:33N 61°25' E 001°44'0 0.2
2014-Dec-04 22:33N 61°25' E 001°44'1 1.4
2014-Dec-04 21:33N 61°24' E 001°43'1 0.8
2014-Dec-04 20:34N 61°25' E 001°44'1 0.6
2014-Dec-04 19:33N 61°25' E 001°45'0 0.3
2014-Dec-04 18:33N 61°24' E 001°45'1 1.1
2014-Dec-04 17:33N 61°26' E 001°44'1 0.5
2014-Dec-04 16:33N 61°25' E 001°44'2 2.5
2014-Dec-04 15:33N 61°23' E 001°42'1 1.0
2014-Dec-04 14:33N 61°24' E 001°43'1 1.2
2014-Dec-04 13:33N 61°25' E 001°44'0 0.2
2014-Dec-04 12:33N 61°25' E 001°45'1 0.8
2014-Dec-04 11:34N 61°24' E 001°45'0 0.1
2014-Dec-04 10:33N 61°24' E 001°45'0 0.2
2014-Dec-04 09:33N 61°24' E 001°45'0 0.1
2014-Dec-04 08:33N 61°24' E 001°45'4 4.3
2014-Dec-04 07:33N 61°26' E 001°37'3 2.8
2014-Dec-04 06:33N 61°28' E 001°34'2 1.7
2014-Dec-04 05:34N 61°27' E 001°31'0 0.5
2014-Dec-04 04:33N 61°27' E 001°32'1 0.6
2014-Dec-04 03:33N 61°28' E 001°33'1 0.9
2014-Dec-04 02:33N 61°28' E 001°34'2 1.6
2014-Dec-04 01:33N 61°27' E 001°33'1 0.9
2014-Dec-04 00:33N 61°27' E 001°35'1 0.9
2014-Dec-03 23:33N 61°27' E 001°33'1 1.1
2014-Dec-03 22:30N 61°27' E 001°31'1 1.0
2014-Dec-03 21:33N 61°27' E 001°32'2 1.8
2014-Dec-03 20:33N 61°28' E 001°36'3 2.8
2014-Dec-03 19:33N 61°26' E 001°31'2 1.7
2014-Dec-03 18:33N 61°27' E 001°34'0 0.3
2014-Dec-03 17:33N 61°27' E 001°34'2 2.0
2014-Dec-03 16:32N 61°26' E 001°30'1 1.2
2014-Dec-03 15:33N 61°27' E 001°33'1 1.0
2014-Dec-03 14:33N 61°27' E 001°35'  
2014-Nov-27 21:27N 57°09' W 002°05'0 0.0
2014-Nov-27 20:32N 57°09' W 002°05'0 0.0
2014-Nov-27 19:30N 57°09' W 002°05'0 0.0
2014-Nov-27 18:33N 57°09' W 002°05'0 0.0
2014-Nov-27 17:33N 57°09' W 002°05'0 0.0
2014-Nov-27 13:25N 57°09' W 002°05'0 0.0
2014-Nov-27 12:33N 57°09' W 002°05'11 5.7
2014-Nov-27 10:33N 57°17' W 001°51'9 8.6
2014-Nov-27 09:33N 57°24' W 001°41'7 7.4
2014-Nov-27 08:33N 57°31' W 001°35'8 7.9
2014-Nov-27 07:33N 57°39' W 001°35'9 8.7
2014-Nov-27 06:32N 57°47' W 001°38'  
Track history (hours):
 
Tides and Currents Weather Stations Pressure Air Temp Water Temp Dewpoint Dewpoint Depression Visibility Wind Speed Wind Dir Waves Ship Positions

Grampian Pride

Last reported at 2014-Dec-05 07:25 UTC. Time now 2014-Dec-19 06:32 UTC.
Position N 61°22' E 001°45'.
Warning: this ship's position is 13 days out of date.

Length 42 m; draft 4.8 m.

Type: SAR. MMSI: 232843000.

Date/timePositionNaut miles runAvg speedWind from/ knotsBaromVisibWave heightAir tempDewpointWater temp
2014-Dec-05 07:25N 61°22' E 001°45'1 1.3
2014-Dec-05 06:34N 61°23' E 001°44'0 0.2
2014-Dec-05 05:33N 61°23' E 001°43'1 1.2
2014-Dec-05 04:33N 61°24' E 001°44'1 1.0
2014-Dec-05 03:33N 61°25' E 001°44'2 1.6
2014-Dec-05 02:33N 61°23' E 001°43'1 1.1
2014-Dec-05 01:33N 61°22' E 001°43'1 1.3
2014-Dec-05 00:33N 61°24' E 001°43'2 1.8
2014-Dec-04 23:33N 61°25' E 001°44'0 0.2
2014-Dec-04 22:33N 61°25' E 001°44'1 1.4
2014-Dec-04 21:33N 61°24' E 001°43'1 0.8
2014-Dec-04 20:34N 61°25' E 001°44'1 0.6
2014-Dec-04 19:33N 61°25' E 001°45'0 0.3
2014-Dec-04 18:33N 61°24' E 001°45'1 1.1
2014-Dec-04 17:33N 61°26' E 001°44'1 0.5
2014-Dec-04 16:33N 61°25' E 001°44'2 2.5
2014-Dec-04 15:33N 61°23' E 001°42'1 1.0
2014-Dec-04 14:33N 61°24' E 001°43'1 1.2
2014-Dec-04 13:33N 61°25' E 001°44'0 0.2
2014-Dec-04 12:33N 61°25' E 001°45'1 0.8
2014-Dec-04 11:34N 61°24' E 001°45'0 0.1
2014-Dec-04 10:33N 61°24' E 001°45'0 0.2
2014-Dec-04 09:33N 61°24' E 001°45'0 0.1
2014-Dec-04 08:33N 61°24' E 001°45'4 4.3
2014-Dec-04 07:33N 61°26' E 001°37'3 2.8
2014-Dec-04 06:33N 61°28' E 001°34'2 1.7
2014-Dec-04 05:34N 61°27' E 001°31'0 0.5
2014-Dec-04 04:33N 61°27' E 001°32'1 0.6
2014-Dec-04 03:33N 61°28' E 001°33'1 0.9
2014-Dec-04 02:33N 61°28' E 001°34'2 1.6
2014-Dec-04 01:33N 61°27' E 001°33'1 0.9
2014-Dec-04 00:33N 61°27' E 001°35'1 0.9
2014-Dec-03 23:33N 61°27' E 001°33'1 1.1
2014-Dec-03 22:30N 61°27' E 001°31'1 1.0
2014-Dec-03 21:33N 61°27' E 001°32'2 1.8
2014-Dec-03 20:33N 61°28' E 001°36'3 2.8
2014-Dec-03 19:33N 61°26' E 001°31'2 1.7
2014-Dec-03 18:33N 61°27' E 001°34'0 0.3
2014-Dec-03 17:33N 61°27' E 001°34'2 2.0
2014-Dec-03 16:32N 61°26' E 001°30'1 1.2
2014-Dec-03 15:33N 61°27' E 001°33'1 1.0
2014-Dec-03 14:33N 61°27' E 001°35'  
2014-Nov-27 21:27N 57°09' W 002°05'0 0.0
2014-Nov-27 20:32N 57°09' W 002°05'0 0.0
2014-Nov-27 19:30N 57°09' W 002°05'0 0.0
2014-Nov-27 18:33N 57°09' W 002°05'0 0.0
2014-Nov-27 17:33N 57°09' W 002°05'0 0.0
2014-Nov-27 13:25N 57°09' W 002°05'0 0.0
2014-Nov-27 12:33N 57°09' W 002°05'11 5.7
2014-Nov-27 10:33N 57°17' W 001°51'9 8.6
2014-Nov-27 09:33N 57°24' W 001°41'7 7.4
2014-Nov-27 08:33N 57°31' W 001°35'8 7.9
2014-Nov-27 07:33N 57°39' W 001°35'9 8.7
2014-Nov-27 06:32N 57°47' W 001°38'  

Dump ship's entire track history